Time;durP1;ratioP1;P1;durP2;ratioP2;P2;SDS_P1;SDS_P2;PMS_P1;PMS_P2;Temp;Humidity;BMP_temperature;BMP_pressure;BME280_temperature;BME280_humidity;BME280_pressure;Samples;Min_cycle;Max_cycle;Signal;HPM_P1;HPM_P2
2021/08/08 00:00:09;;;;;;;25.58;10.88;;;;;;;14.00;100.00;100121.09;5076188;28;20028;-66
2021/08/08 00:02:37;;;;;;;25.45;10.60;;;;;;;14.01;100.00;100126.38;5075541;28;20555;-65
2021/08/08 00:05:08;;;;;;;26.23;10.77;;;;;;;14.00;100.00;100129.06;5075653;28;20133;-65
2021/08/08 00:07:34;;;;;;;26.48;11.15;;;;;;;14.01;100.00;100129.03;5074915;28;20024;-65
2021/08/08 00:09:59;;;;;;;26.17;11.20;;;;;;;14.01;100.00;100129.03;5072977;28;20029;-66
2021/08/08 00:12:24;;;;;;;27.48;11.20;;;;;;;14.02;100.00;100137.84;5072617;28;20029;-65
2021/08/08 00:14:50;;;;;;;28.70;11.57;;;;;;;14.02;100.00;100132.53;5072742;28;20025;-66
2021/08/08 00:17:15;;;;;;;27.85;11.23;;;;;;;14.04;100.00;100139.59;5072504;28;20475;-67
2021/08/08 00:19:41;;;;;;;27.25;11.65;;;;;;;14.00;100.00;100145.00;5073208;28;20028;-65
2021/08/08 00:22:06;;;;;;;28.63;12.38;;;;;;;14.00;100.00;100129.06;5072058;28;20541;-67
2021/08/08 00:24:31;;;;;;;30.05;13.75;;;;;;;13.93;100.00;100142.44;5073090;28;20047;-67
2021/08/08 00:26:57;;;;;;;29.88;13.52;;;;;;;13.92;100.00;100146.03;5073181;28;20021;-68
2021/08/08 00:29:22;;;;;;;32.67;13.40;;;;;;;13.97;100.00;100137.97;5071382;28;20076;-67
2021/08/08 00:31:48;;;;;;;31.65;13.35;;;;;;;13.95;100.00;100145.97;5073026;28;20103;-67
2021/08/08 00:34:13;;;;;;;31.48;14.18;;;;;;;13.89;100.00;100140.78;5072702;28;20023;-67
2021/08/08 00:36:38;;;;;;;31.10;13.82;;;;;;;13.92;100.00;100146.03;5072712;28;20070;-67
2021/08/08 00:39:04;;;;;;;30.95;13.35;;;;;;;13.90;100.00;100146.97;5073117;28;20482;-67
2021/08/08 00:41:30;;;;;;;29.05;13.45;;;;;;;13.93;100.00;100153.06;5072627;28;20095;-67
2021/08/08 00:43:55;;;;;;;30.45;12.98;;;;;;;13.90;100.00;100153.13;5072404;28;20107;-67
2021/08/08 00:46:20;;;;;;;30.65;12.80;;;;;;;13.90;100.00;100153.13;5073022;28;20480;-69
2021/08/08 00:48:46;;;;;;;29.42;12.82;;;;;;;13.92;100.00;100161.06;5072888;28;20024;-67
2021/08/08 00:51:11;;;;;;;31.95;13.07;;;;;;;13.93;100.00;100157.53;5072550;28;20017;-67
2021/08/08 00:53:37;;;;;;;33.97;13.63;;;;;;;13.90;100.00;100158.47;5072748;28;20083;-67
2021/08/08 00:56:02;;;;;;;34.40;13.32;;;;;;;13.91;100.00;100162.00;5072579;28;20054;-67
2021/08/08 00:58:28;;;;;;;31.10;13.18;;;;;;;13.87;100.00;100165.63;5072563;28;20375;-66
2021/08/08 01:00:57;;;;;;;31.67;13.27;;;;;;;13.88;100.00;100170.91;5072535;28;20025;-65
2021/08/08 01:03:23;;;;;;;31.92;13.32;;;;;;;13.90;100.00;100176.19;5072719;28;20042;-65
2021/08/08 01:05:51;;;;;;;34.50;13.57;;;;;;;13.90;100.00;100178.84;5072292;28;20020;-65
2021/08/08 01:08:27;;;;;;;32.75;13.10;;;;;;;13.95;100.00;100188.47;5072550;28;20471;-66
2021/08/08 01:10:53;;;;;;;30.25;12.27;;;;;;;13.95;100.00;100185.81;5072684;28;20040;-64
2021/08/08 01:13:19;;;;;;;30.85;12.98;;;;;;;13.92;100.00;100195.63;5072499;28;20442;-66
2021/08/08 01:15:48;;;;;;;33.20;13.18;;;;;;;13.93;100.00;100194.72;5072691;28;20025;-66
2021/08/08 01:18:14;;;;;;;33.03;13.13;;;;;;;13.95;100.00;100198.25;5072072;28;20040;-66
2021/08/08 01:20:41;;;;;;;32.05;12.65;;;;;;;13.99;100.00;100193.72;5072174;28;20486;-66
2021/08/08 01:23:11;;;;;;;31.48;12.20;;;;;;;14.02;100.00;100207.81;5072420;28;20538;-65
2021/08/08 01:25:37;;;;;;;32.35;12.05;;;;;;;14.00;100.00;100212.28;5072408;28;20059;-64
2021/08/08 01:28:02;;;;;;;36.75;12.77;;;;;;;14.05;100.00;100212.19;5072184;28;20056;-65
2021/08/08 01:30:28;;;;;;;32.10;12.70;;;;;;;14.03;100.00;100211.38;5072668;28;20161;-65
2021/08/08 01:33:04;;;;;;;30.25;12.27;;;;;;;14.04;100.00;100216.66;5074211;28;20032;-66
2021/08/08 01:35:30;;;;;;;32.05;12.70;;;;;;;13.95;100.00;100214.19;5076111;28;20066;-67
2021/08/08 01:37:56;;;;;;;32.05;11.80;;;;;;;13.92;100.00;100220.44;5073712;28;20422;-65
2021/08/08 01:40:45;;;;;;;35.55;12.20;;;;;;;13.98;100.00;100223.84;5079802;28;20028;-65
2021/08/08 01:43:14;;;;;;;30.77;11.75;;;;;;;13.94;100.00;100225.72;5074873;28;20093;-64
2021/08/08 01:45:42;;;;;;;34.70;11.68;;;;;;;13.94;100.00;100221.25;5075575;28;20028;-64
2021/08/08 01:48:10;;;;;;;33.67;11.98;;;;;;;13.94;100.00;100223.91;5075379;28;20025;-65
2021/08/08 01:50:36;;;;;;;31.75;11.50;;;;;;;13.94;100.00;100226.56;5075939;28;20063;-65
2021/08/08 01:53:02;;;;;;;32.88;12.45;;;;;;;13.94;100.00;100237.19;5075755;28;20474;-64
2021/08/08 01:55:29;;;;;;;33.13;12.30;;;;;;;13.95;100.00;100228.34;5075704;28;20344;-65
2021/08/08 01:57:55;;;;;;;31.77;10.98;;;;;;;13.97;100.00;100235.41;5075784;28;20024;-64
2021/08/08 02:00:23;;;;;;;32.58;10.98;;;;;;;13.90;100.00;100253.22;5075650;28;20024;-66
2021/08/08 02:02:58;;;;;;;29.00;10.75;;;;;;;13.94;100.00;100246.97;5075735;28;20416;-64
2021/08/08 02:05:29;;;;;;;34.38;11.93;;;;;;;13.94;100.00;100247.81;5072271;28;20017;-66
2021/08/08 02:07:54;;;;;;;31.05;10.68;;;;;;;13.90;100.00;100240.81;5072115;28;20073;-66
2021/08/08 02:10:20;;;;;;;29.80;10.57;;;;;;;13.88;100.00;100242.63;5071526;28;20476;-66
2021/08/08 02:12:46;;;;;;;28.67;10.07;;;;;;;13.93;100.00;100254.03;5075432;28;20474;-66
2021/08/08 02:15:12;;;;;;;30.75;11.00;;;;;;;13.93;100.00;100237.22;5075528;28;20126;-65
2021/08/08 02:17:39;;;;;;;31.17;11.65;;;;;;;13.97;100.00;100251.34;5074971;28;20072;-67
2021/08/08 02:20:06;;;;;;;32.10;10.85;;;;;;;13.95;100.00;100259.34;5075272;28;20044;-64
2021/08/08 02:22:33;;;;;;;28.58;10.48;;;;;;;13.92;100.00;100252.31;5075494;28;20032;-64
2021/08/08 02:24:58;;;;;;;32.05;10.57;;;;;;;13.89;100.00;100252.38;5075227;28;20508;-65
2021/08/08 02:27:24;;;;;;;28.63;10.20;;;;;;;13.83;100.00;100256.91;5075092;28;20059;-64
2021/08/08 02:29:50;;;;;;;28.98;10.27;;;;;;;13.80;100.00;100263.16;5075421;28;20024;-64
2021/08/08 02:32:15;;;;;;;31.42;10.75;;;;;;;13.75;100.00;100263.22;5075044;28;20024;-64
2021/08/08 02:34:41;;;;;;;31.15;10.90;;;;;;;13.81;100.00;100266.69;5074940;28;20020;-63
2021/08/08 02:37:07;;;;;;;30.27;10.68;;;;;;;13.83;100.00;100280.81;5075062;28;20024;-65
2021/08/08 02:39:33;;;;;;;32.75;10.50;;;;;;;13.86;100.00;100268.38;5074900;28;20059;-63
2021/08/08 02:41:58;;;;;;;31.13;10.18;;;;;;;13.87;100.00;100286.03;5075186;28;20063;-64
2021/08/08 02:44:23;;;;;;;29.83;10.18;;;;;;;13.92;100.00;100278.88;5073999;28;20024;-64
2021/08/08 02:46:49;;;;;;;31.90;10.65;;;;;;;13.99;100.00;100284.06;5074905;28;20040;-65
2021/08/08 02:49:14;;;;;;;28.90;9.93;;;;;;;13.94;100.00;100297.44;5075279;28;20107;-65
2021/08/08 02:51:39;;;;;;;27.02;9.30;;;;;;;14.00;100.00;100293.81;5074682;28;20070;-64
2021/08/08 02:54:05;;;;;;;27.98;9.88;;;;;;;13.97;100.00;100300.03;5074570;28;20020;-64
2021/08/08 02:56:30;;;;;;;28.80;9.98;;;;;;;13.97;100.00;100307.16;5074939;28;20027;-64
2021/08/08 02:58:55;;;;;;;27.50;9.82;;;;;;;13.93;100.00;100306.31;5074865;28;20048;-63
2021/08/08 03:01:21;;;;;;;30.83;9.98;;;;;;;13.88;100.00;100300.22;5074432;28;20529;-64
2021/08/08 03:03:46;;;;;;;29.35;9.95;;;;;;;13.86;100.00;100302.00;5074625;28;20051;-63
2021/08/08 03:06:13;;;;;;;29.98;9.77;;;;;;;13.84;100.00;100311.81;5074277;28;20052;-64
2021/08/08 03:08:40;;;;;;;29.58;9.52;;;;;;;13.87;100.00;100312.59;5074323;28;20025;-64
2021/08/08 03:11:05;;;;;;;29.65;9.82;;;;;;;13.91;100.00;100319.63;5074695;28;20033;-63
2021/08/08 03:13:31;;;;;;;27.10;9.32;;;;;;;13.89;100.00;100320.53;5074456;28;20025;-64
2021/08/08 03:15:56;;;;;;;29.40;9.60;;;;;;;13.93;100.00;100319.59;5074462;28;20103;-64
2021/08/08 03:18:21;;;;;;;30.13;9.27;;;;;;;13.93;100.00;100322.25;5074212;28;20048;-64
2021/08/08 03:20:47;;;;;;;30.85;9.40;;;;;;;13.97;100.00;100318.66;5074329;28;20017;-63
2021/08/08 03:23:12;;;;;;;31.85;9.75;;;;;;;13.99;100.00;100338.09;5074227;28;20029;-63
2021/08/08 03:25:38;;;;;;;29.05;9.23;;;;;;;13.97;100.00;100318.66;5073858;28;20111;-64
2021/08/08 03:28:04;;;;;;;30.45;9.65;;;;;;;13.94;100.00;100332.84;5074341;28;20020;-63
2021/08/08 03:30:29;;;;;;;30.05;9.82;;;;;;;13.96;100.00;100343.44;5074429;28;20032;-63
2021/08/08 03:32:54;;;;;;;29.35;9.25;;;;;;;13.92;100.00;100337.34;5072752;28;20058;-63
2021/08/08 03:35:20;;;;;;;33.30;9.90;;;;;;;13.92;100.00;100340.00;5073871;28;20020;-63
2021/08/08 03:37:45;;;;;;;30.27;9.13;;;;;;;13.93;100.00;100343.50;5073990;28;20024;-63
2021/08/08 03:40:11;;;;;;;29.25;8.93;;;;;;;13.92;100.00;100342.66;5073595;28;20028;-63
2021/08/08 03:42:36;;;;;;;32.22;9.20;;;;;;;13.98;100.00;100357.59;5073429;28;20033;-64
2021/08/08 03:45:03;;;;;;;29.75;9.48;;;;;;;14.00;100.00;100358.44;5073995;28;20390;-63
2021/08/08 03:47:28;;;;;;;30.00;8.60;;;;;;;14.01;100.00;100346.03;5073775;28;20036;-64
2021/08/08 03:49:53;;;;;;;29.95;9.30;;;;;;;13.95;100.00;100358.53;5073644;28;20024;-64
2021/08/08 03:52:19;;;;;;;29.00;9.15;;;;;;;13.98;100.00;100364.69;5073937;28;20467;-66
2021/08/08 03:54:44;;;;;;;32.25;9.70;;;;;;;13.98;100.00;100362.03;5073643;28;20082;-66
2021/08/08 03:57:10;;;;;;;29.67;8.63;;;;;;;13.94;100.00;100377.16;5073212;28;20482;-66
2021/08/08 03:59:35;;;;;;;29.42;9.15;;;;;;;13.95;100.00;100381.56;5073781;28;20031;-66
2021/08/08 04:02:00;;;;;;;30.73;8.82;;;;;;;13.98;100.00;100372.66;5073470;28;20068;-66
2021/08/08 04:04:25;;;;;;;27.80;8.35;;;;;;;13.96;100.00;100380.66;5073711;28;20104;-66
2021/08/08 04:06:51;;;;;;;29.23;8.82;;;;;;;13.93;100.00;100370.94;5073267;28;20466;-66
2021/08/08 04:09:16;;;;;;;29.42;9.25;;;;;;;13.96;100.00;100372.69;5073215;28;20107;-67
2021/08/08 04:11:41;;;;;;;26.75;8.90;;;;;;;14.01;100.00;100377.91;5071963;28;20063;-66
2021/08/08 04:14:07;;;;;;;28.73;8.50;;;;;;;14.00;100.00;100381.50;5071403;28;20111;-66
2021/08/08 04:16:32;;;;;;;28.17;8.48;;;;;;;14.05;100.00;100369.00;5073071;28;20068;-66
2021/08/08 04:18:58;;;;;;;28.13;8.68;;;;;;;14.00;100.00;100376.19;5073331;28;20488;-67
2021/08/08 04:21:23;;;;;;;29.15;9.15;;;;;;;13.95;100.00;100385.09;5072941;28;20041;-66
2021/08/08 04:23:48;;;;;;;31.17;9.30;;;;;;;13.97;100.00;100390.38;5072991;28;20456;-66
2021/08/08 04:26:14;;;;;;;28.85;9.10;;;;;;;13.99;100.00;100385.91;5073292;28;20440;-66
2021/08/08 04:28:39;;;;;;;28.23;8.63;;;;;;;14.04;100.00;100388.50;5072789;28;20587;-66
2021/08/08 04:31:06;;;;;;;27.67;8.73;;;;;;;14.05;100.00;100393.81;5073014;28;20095;-66
2021/08/08 04:33:33;;;;;;;28.15;8.48;;;;;;;14.03;100.00;100392.06;5072908;28;20467;-66
2021/08/08 04:35:58;;;;;;;29.45;8.43;;;;;;;14.03;100.00;100406.22;5072689;28;20029;-64
2021/08/08 04:38:24;;;;;;;29.52;8.27;;;;;;;14.14;100.00;100400.75;5072906;28;20033;-63
2021/08/08 04:40:49;;;;;;;28.42;8.00;;;;;;;14.14;100.00;100408.72;5072683;28;20113;-64
2021/08/08 04:43:14;;;;;;;29.63;8.35;;;;;;;14.19;100.00;100409.50;5072606;28;20174;-64
2021/08/08 04:45:40;;;;;;;28.00;7.97;;;;;;;14.18;100.00;100409.53;5071545;28;20508;-64
2021/08/08 04:48:05;;;;;;;28.67;8.52;;;;;;;14.17;100.00;100411.31;5072558;28;20027;-63
2021/08/08 04:50:30;;;;;;;27.40;7.97;;;;;;;14.18;100.00;100412.19;5072556;28;20027;-64
2021/08/08 04:52:56;;;;;;;27.20;8.15;;;;;;;14.16;100.00;100412.22;5073081;28;20119;-64
2021/08/08 04:55:21;;;;;;;27.85;8.30;;;;;;;14.19;100.00;100414.81;5069079;28;20072;-64
2021/08/08 04:57:46;;;;;;;31.40;8.30;;;;;;;14.26;100.00;100411.13;5073205;28;20107;-63
2021/08/08 05:00:12;;;;;;;29.95;8.13;;;;;;;14.25;100.00;100420.00;5077126;28;20077;-64
2021/08/08 05:02:43;;;;;;;27.73;8.20;;;;;;;14.24;100.00;100423.59;5070834;28;20028;-64
2021/08/08 05:05:09;;;;;;;27.98;8.60;;;;;;;14.24;100.00;100426.25;5068157;28;20089;-63
2021/08/08 05:07:39;;;;;;;30.38;8.13;;;;;;;14.25;100.00;100432.44;5074623;28;20443;-64
2021/08/08 05:10:10;;;;;;;30.20;8.30;;;;;;;14.22;100.00;100432.50;5074425;28;20020;-64
2021/08/08 05:12:35;;;;;;;28.80;8.20;;;;;;;14.22;100.00;100437.81;5074674;28;20029;-63
2021/08/08 05:15:01;;;;;;;31.98;8.80;;;;;;;14.23;100.00;100436.91;5076854;28;20037;-63
2021/08/08 05:17:26;;;;;;;28.33;8.18;;;;;;;14.29;100.00;100435.00;5075643;28;20029;-64
2021/08/08 05:19:52;;;;;;;29.83;8.48;;;;;;;14.30;100.00;100438.56;5077545;28;20475;-64
2021/08/08 05:22:17;;;;;;;28.05;7.88;;;;;;;14.31;100.00;100440.28;5084204;28;20127;-64
2021/08/08 05:24:42;;;;;;;29.10;8.20;;;;;;;14.30;99.47;100439.44;5081320;28;20086;-62
2021/08/08 05:27:08;;;;;;;28.13;8.13;;;;;;;14.32;100.00;100463.34;5080349;28;20032;-64
2021/08/08 05:29:33;;;;;;;30.73;8.50;;;;;;;14.37;97.64;100449.94;5083620;28;20486;-63
2021/08/08 05:31:59;;;;;;;29.80;8.27;;;;;;;14.41;97.46;100456.97;5083944;28;20029;-63
2021/08/08 05:34:24;;;;;;;29.17;7.90;;;;;;;14.46;96.35;100466.63;5082713;28;20032;-64
2021/08/08 05:36:50;;;;;;;26.80;8.10;;;;;;;14.46;96.82;100468.44;5081581;28;20031;-63
2021/08/08 05:39:15;;;;;;;29.52;8.07;;;;;;;14.46;96.67;100471.94;5085343;28;20483;-64
2021/08/08 05:41:40;;;;;;;28.42;8.07;;;;;;;14.49;97.03;100471.03;5081269;28;20028;-64
2021/08/08 05:44:06;;;;;;;27.25;8.38;;;;;;;14.49;96.62;100476.34;5084941;28;20482;-64
2021/08/08 05:46:31;;;;;;;28.33;8.07;;;;;;;14.54;96.33;100485.09;5083778;28;20044;-63
2021/08/08 05:48:56;;;;;;;34.08;8.48;;;;;;;14.53;95.42;100479.81;5080364;28;20031;-67
2021/08/08 05:51:22;;;;;;;27.05;8.05;;;;;;;14.57;96.42;100476.19;5078364;28;20068;-65
2021/08/08 05:53:47;;;;;;;26.05;8.02;;;;;;;14.57;95.04;100474.41;5082947;28;20056;-66
2021/08/08 05:56:12;;;;;;;27.13;7.88;;;;;;;14.59;93.69;100479.69;5082103;28;20052;-66
2021/08/08 05:58:38;;;;;;;29.23;8.48;;;;;;;14.59;94.78;100499.22;5073891;28;20029;-64
2021/08/08 06:01:03;;;;;;;28.75;7.95;;;;;;;14.62;94.22;100490.31;5079786;28;20024;-68
2021/08/08 06:03:28;;;;;;;31.08;8.93;;;;;;;14.59;94.64;100501.88;5085825;28;20059;-64
2021/08/08 06:05:54;;;;;;;29.25;8.30;;;;;;;14.61;93.38;100505.41;5079827;28;20016;-66
2021/08/08 06:08:19;;;;;;;29.48;8.40;;;;;;;14.61;93.32;100497.41;5079517;28;20033;-65
2021/08/08 06:10:45;;;;;;;27.48;8.02;;;;;;;14.64;94.52;100504.47;5082612;28;20150;-68
2021/08/08 06:13:11;;;;;;;28.02;8.00;;;;;;;14.67;94.90;100504.41;5081089;28;20106;-64
2021/08/08 06:15:37;;;;;;;31.08;8.68;;;;;;;14.70;91.27;100506.16;5080996;28;20458;-63
2021/08/08 06:18:02;;;;;;;26.23;7.85;;;;;;;14.70;91.75;100503.50;5081557;28;20059;-63
2021/08/08 06:20:28;;;;;;;28.10;8.05;;;;;;;14.66;91.78;100509.78;5077201;28;20036;-63
2021/08/08 06:22:54;;;;;;;27.40;8.07;;;;;;;14.70;90.26;100516.78;5078214;28;20027;-64
2021/08/08 06:25:19;;;;;;;29.10;8.05;;;;;;;14.71;89.58;100524.75;5074969;28;20024;-63
2021/08/08 06:27:45;;;;;;;31.83;8.82;;;;;;;14.75;90.00;100525.56;5074626;28;20374;-63
2021/08/08 06:30:11;;;;;;;28.83;7.97;;;;;;;14.81;88.30;100528.13;5074789;28;20427;-63
2021/08/08 06:32:36;;;;;;;29.13;8.23;;;;;;;14.87;88.30;100533.34;5071500;28;20029;-64
2021/08/08 06:35:05;;;;;;;29.48;8.50;;;;;;;14.92;87.88;100551.88;5070476;28;20034;-64
2021/08/08 06:37:51;;;;;;;26.70;7.93;;;;;;;14.91;87.61;100548.34;5068791;28;20039;-65
2021/08/08 06:40:17;;;;;;;27.40;7.78;;;;;;;15.03;86.88;100549.00;5063637;28;20123;-65
2021/08/08 06:42:42;;;;;;;29.48;8.55;;;;;;;15.12;85.16;100556.81;5074783;28;20566;-65
2021/08/08 06:45:08;;;;;;;25.00;7.35;;;;;;;15.19;85.08;100553.16;5074564;28;20021;-65
2021/08/08 06:47:33;;;;;;;27.48;7.60;;;;;;;15.21;85.21;100555.78;5075058;28;20028;-64
2021/08/08 06:49:58;;;;;;;29.05;8.13;;;;;;;15.18;84.48;100559.38;5074919;28;20028;-64
2021/08/08 06:52:24;;;;;;;25.00;7.30;;;;;;;15.20;83.12;100570.84;5074821;28;20028;-64
2021/08/08 06:54:49;;;;;;;25.85;7.35;;;;;;;15.15;83.74;100565.63;5074889;28;20052;-64
2021/08/08 06:57:28;;;;;;;25.48;7.50;;;;;;;15.23;83.42;100576.16;5074813;28;20374;-65
2021/08/08 06:59:54;;;;;;;27.45;8.10;;;;;;;15.37;83.44;100581.19;5071822;28;20040;-64
2021/08/08 07:02:21;;;;;;;27.52;7.55;;;;;;;15.47;80.27;100585.41;5074857;28;20043;-64
2021/08/08 07:04:46;;;;;;;27.95;8.35;;;;;;;15.51;79.91;100588.91;5070880;28;20024;-65
2021/08/08 07:07:12;;;;;;;27.85;7.65;;;;;;;15.59;79.26;100578.09;5074416;28;20552;-63
2021/08/08 07:09:37;;;;;;;30.55;8.48;;;;;;;15.62;80.45;100586.88;5074651;28;20036;-64
2021/08/08 07:12:03;;;;;;;27.48;7.07;;;;;;;15.50;78.21;100589.81;5074322;28;20086;-67
2021/08/08 07:14:31;;;;;;;25.90;7.30;;;;;;;15.46;80.59;100586.31;5074104;28;20479;-65
2021/08/08 07:16:56;;;;;;;26.52;7.85;;;;;;;15.60;79.24;100607.38;5074458;28;20070;-68
2021/08/08 07:19:22;;;;;;;26.75;7.40;;;;;;;15.60;79.13;100594.03;5074443;28;20040;-67
2021/08/08 07:21:47;;;;;;;26.75;6.85;;;;;;;15.68;76.98;100602.78;5074119;28;20021;-67
2021/08/08 07:24:12;;;;;;;25.90;6.93;;;;;;;15.66;77.92;100599.25;5074355;28;20050;-68
2021/08/08 07:26:38;;;;;;;27.33;7.18;;;;;;;15.73;79.26;100601.78;5073981;28;20443;-66
2021/08/08 07:29:03;;;;;;;27.48;7.03;;;;;;;15.86;78.27;100598.00;5074296;28;20024;-66
2021/08/08 07:31:29;;;;;;;27.35;7.10;;;;;;;15.90;76.34;100604.13;5073757;28;20052;-66
2021/08/08 07:33:54;;;;;;;25.48;7.32;;;;;;;15.84;77.43;100598.03;5073908;28;20078;-65
2021/08/08 07:36:20;;;;;;;25.67;6.70;;;;;;;15.93;78.56;100583.63;5072253;28;20024;-65
2021/08/08 07:38:45;;;;;;;24.42;7.00;;;;;;;16.13;78.44;100592.97;5076225;28;20699;-64
2021/08/08 07:41:11;;;;;;;25.08;6.38;;;;;;;16.16;74.98;100612.44;5079969;28;20111;-64
2021/08/08 07:43:40;;;;;;;25.80;6.93;;;;;;;16.04;76.36;100602.91;5079321;28;20405;-64
2021/08/08 07:46:06;;;;;;;26.05;6.75;;;;;;;16.01;76.78;100599.44;5078139;28;20032;-64
2021/08/08 07:48:31;;;;;;;24.92;6.32;;;;;;;16.06;74.79;100615.34;5078079;28;20028;-69
2021/08/08 07:50:57;;;;;;;26.20;6.88;;;;;;;16.08;74.71;100602.88;5080534;28;20024;-69
2021/08/08 07:53:22;;;;;;;24.52;6.53;;;;;;;16.14;75.05;100603.59;5079557;28;20031;-66
2021/08/08 07:55:50;;;;;;;25.10;7.00;;;;;;;16.17;76.24;100607.97;5080060;28;20036;-67
2021/08/08 07:58:16;;;;;;;26.00;6.88;;;;;;;16.29;74.64;100613.03;5074048;28;20383;-66
2021/08/08 08:00:41;;;;;;;26.83;6.57;;;;;;;16.34;76.12;100619.13;5078613;28;20031;-65
2021/08/08 08:03:06;;;;;;;23.70;6.43;;;;;;;16.47;75.64;100618.84;5077731;28;20467;-65
2021/08/08 08:05:32;;;;;;;24.52;7.05;;;;;;;16.46;74.09;100625.09;5079992;28;20115;-64
2021/08/08 08:07:57;;;;;;;25.05;7.00;;;;;;;16.45;75.09;100613.53;5076874;28;20032;-65
2021/08/08 08:10:22;;;;;;;27.27;6.93;;;;;;;16.44;75.09;100630.47;5078499;28;20036;-65
2021/08/08 08:12:48;;;;;;;25.83;6.60;;;;;;;16.31;73.94;100632.56;5080509;28;20032;-66
2021/08/08 08:15:13;;;;;;;22.58;6.43;;;;;;;16.26;75.26;100629.09;5078958;28;20035;-65
2021/08/08 08:17:38;;;;;;;24.65;6.80;;;;;;;16.39;73.83;100629.69;5080068;28;20066;-66
2021/08/08 08:20:04;;;;;;;25.38;6.88;;;;;;;16.41;73.59;100629.66;5077323;28;20032;-64
2021/08/08 08:22:30;;;;;;;27.30;7.10;;;;;;;16.42;73.32;100628.75;5075456;28;20112;-66
2021/08/08 08:24:55;;;;;;;23.92;6.75;;;;;;;16.51;72.68;100633.88;5070690;28;20070;-65
2021/08/08 08:27:20;;;;;;;24.35;6.10;;;;;;;16.50;71.38;100632.13;5078120;28;20049;-66
2021/08/08 08:29:46;;;;;;;23.42;6.57;;;;;;;16.36;72.75;100635.09;5078781;28;20119;-65
2021/08/08 08:32:11;;;;;;;24.00;6.40;;;;;;;16.60;71.43;100632.78;5077018;28;20032;-66
2021/08/08 08:34:36;;;;;;;24.55;6.50;;;;;;;17.00;71.21;100651.38;5077309;28;20029;-65
2021/08/08 08:37:02;;;;;;;28.98;6.65;;;;;;;17.38;68.91;100643.28;5065827;28;20039;-65
2021/08/08 08:39:28;;;;;;;26.50;6.53;;;;;;;17.59;68.96;100653.41;5066774;28;20370;-63
2021/08/08 08:41:57;;;;;;;23.40;5.80;;;;;;;17.46;67.20;100645.75;5070471;28;20020;-64
2021/08/08 08:44:22;;;;;;;24.77;6.00;;;;;;;17.23;68.49;100665.94;5068923;28;20522;-64
2021/08/08 08:46:48;;;;;;;22.75;6.00;;;;;;;16.94;66.55;100664.91;5070729;28;20078;-64
2021/08/08 08:49:19;;;;;;;23.35;6.13;;;;;;;16.80;67.37;100648.31;5071601;28;20036;-64
2021/08/08 08:51:51;;;;;;;25.63;6.18;;;;;;;16.85;67.97;100657.09;5075402;28;20020;-64
2021/08/08 08:54:18;;;;;;;25.10;6.22;;;;;;;17.01;68.41;100663.81;5070714;28;20078;-64
2021/08/08 08:56:43;;;;;;;24.63;6.13;;;;;;;17.17;67.58;100655.41;5076928;28;20115;-64
2021/08/08 08:59:10;;;;;;;21.65;5.30;;;;;;;17.18;65.16;100651.81;5071828;28;20028;-64
2021/08/08 09:01:35;;;;;;;23.92;5.90;;;;;;;17.34;65.73;100658.50;5074831;28;20025;-64
2021/08/08 09:04:02;;;;;;;24.33;5.30;;;;;;;17.75;64.91;100659.19;5071772;28;20032;-65
2021/08/08 09:06:28;;;;;;;21.20;5.25;;;;;;;18.09;63.73;100668.06;5068200;28;20052;-65
2021/08/08 09:08:54;;;;;;;22.30;5.55;;;;;;;18.08;63.80;100680.53;5073014;28;20055;-65
2021/08/08 09:11:19;;;;;;;21.35;5.38;;;;;;;18.12;62.16;100682.19;5072626;28;20021;-65
2021/08/08 09:13:56;;;;;;;22.42;5.40;;;;;;;17.84;64.21;100687.47;5071323;28;20023;-65
2021/08/08 09:16:26;;;;;;;22.30;5.68;;;;;;;17.88;64.75;100697.16;5068756;28;20037;-64
2021/08/08 09:18:53;;;;;;;21.95;5.32;;;;;;;17.83;64.40;100685.69;5072513;28;20044;-66
2021/08/08 09:21:20;;;;;;;23.88;5.20;;;;;;;17.96;64.98;100704.97;5076276;28;20467;-66
2021/08/08 09:23:57;;;;;;;21.58;5.57;;;;;;;17.76;64.66;100722.41;5068450;28;20020;-66
2021/08/08 09:26:31;;;;;;;22.77;5.20;;;;;;;17.71;65.14;100707.44;5078415;28;20056;-66
2021/08/08 09:29:09;;;;;;;21.83;5.28;;;;;;;17.55;65.34;100718.53;5066594;28;20028;-65
2021/08/08 09:31:47;;;;;;;24.92;5.72;;;;;;;17.61;64.66;100720.16;5068861;28;20078;-66
2021/08/08 09:34:26;;;;;;;22.80;5.80;;;;;;;17.52;66.10;100728.44;5068836;28;20024;-66
2021/08/08 09:36:53;;;;;;;21.65;5.13;;;;;;;17.53;65.22;100712.38;5068639;28;20029;-65
2021/08/08 09:39:31;;;;;;;24.63;5.70;;;;;;;17.71;63.79;100721.66;5062215;28;20028;-65
2021/08/08 09:42:15;;;;;;;22.40;5.45;;;;;;;17.77;64.27;100750.03;5063839;28;20032;-66
2021/08/08 09:45:12;;;;;;;24.13;5.85;;;;;;;17.47;64.82;100738.34;5071068;28;20379;-66
2021/08/08 09:47:46;;;;;;;24.25;5.45;;;;;;;17.40;65.56;100726.94;4999495;28;20479;-65
2021/08/08 09:50:16;;;;;;;22.63;5.65;;;;;;;17.61;65.80;100738.88;4996208;28;20037;-64
2021/08/08 09:52:49;;;;;;;24.90;5.63;;;;;;;17.93;64.21;100748.72;5001332;28;20069;-66
2021/08/08 09:55:29;;;;;;;24.20;5.82;;;;;;;17.92;64.56;100748.75;5003164;28;20037;-66
2021/08/08 09:57:55;;;;;;;23.90;5.50;;;;;;;18.06;64.08;100749.25;5001184;28;20628;-65
2021/08/08 10:00:23;;;;;;;22.05;5.57;;;;;;;18.14;63.05;100765.06;5012247;28;20107;-65
2021/08/08 10:02:49;;;;;;;21.65;5.82;;;;;;;18.19;65.44;100754.25;5013972;28;20388;-66
2021/08/08 10:05:14;;;;;;;23.15;5.00;;;;;;;18.24;61.46;100757.69;5013608;28;20034;-66
2021/08/08 10:07:40;;;;;;;20.33;4.88;;;;;;;18.09;62.58;100759.88;5013757;28;20033;-66
2021/08/08 10:10:06;;;;;;;21.63;5.25;;;;;;;18.06;62.97;100770.66;5013748;28;20536;-65
2021/08/08 10:12:43;;;;;;;21.42;5.35;;;;;;;17.98;63.72;100751.25;5013429;28;20505;-66
2021/08/08 10:15:10;;;;;;;21.52;5.35;;;;;;;18.09;62.82;100773.25;5013469;28;20540;-66
2021/08/08 10:17:38;;;;;;;18.45;4.97;;;;;;;18.23;62.92;100771.97;5013571;28;20046;-66
2021/08/08 10:20:05;;;;;;;23.13;5.15;;;;;;;18.10;61.29;100772.31;5013707;28;20034;-66
2021/08/08 10:22:33;;;;;;;21.27;4.93;;;;;;;17.99;61.76;100773.56;5013622;28;20046;-66
2021/08/08 10:24:59;;;;;;;21.05;4.88;;;;;;;17.98;63.77;100769.97;5066543;28;20142;-66
2021/08/08 10:27:32;;;;;;;19.42;4.88;;;;;;;18.11;63.79;100773.19;5075317;28;20016;-66
2021/08/08 10:30:00;;;;;;;23.08;5.40;;;;;;;18.19;62.94;100779.22;5071471;28;20031;-66
2021/08/08 10:32:27;;;;;;;20.25;4.70;;;;;;;18.12;61.88;100769.59;5074178;28;20110;-67
2021/08/08 10:34:54;;;;;;;22.48;5.00;;;;;;;18.08;62.25;100787.53;5075195;28;20039;-66
2021/08/08 10:37:26;;;;;;;21.52;4.95;;;;;;;17.98;62.84;100782.47;5074676;28;20027;-67
2021/08/08 10:39:52;;;;;;;21.52;4.97;;;;;;;17.87;62.33;100797.00;5074543;28;20091;-67
2021/08/08 10:42:21;;;;;;;22.40;4.78;;;;;;;18.05;61.86;100787.59;5074567;28;20498;-67
2021/08/08 10:44:52;;;;;;;21.48;5.22;;;;;;;18.29;61.03;100780.69;5074866;28;20472;-66
2021/08/08 10:47:31;;;;;;;21.55;5.10;;;;;;;18.30;61.62;100784.25;5074851;28;20376;-66
2021/08/08 10:50:15;;;;;;;21.38;5.03;;;;;;;18.34;61.99;100785.91;5074726;28;20107;-66
2021/08/08 10:52:42;;;;;;;20.38;4.80;;;;;;;18.20;61.11;100766.72;5071621;28;20384;-66
2021/08/08 10:55:20;;;;;;;20.95;5.13;;;;;;;18.31;61.23;100772.63;5074685;28;20024;-66
2021/08/08 10:57:47;;;;;;;21.60;4.80;;;;;;;18.77;58.94;100779.28;5074885;28;20029;-66
2021/08/08 11:00:13;;;;;;;19.38;4.90;;;;;;;19.20;57.85;100778.91;5074461;28;20060;-66
2021/08/08 11:02:39;;;;;;;19.75;4.28;;;;;;;19.50;56.95;100771.66;5074530;28;20028;-66
2021/08/08 11:05:15;;;;;;;20.23;4.43;;;;;;;20.67;54.69;100774.63;5074161;28;20527;-67
2021/08/08 11:07:42;;;;;;;20.65;4.65;;;;;;;21.91;51.86;100767.75;5071740;28;20032;-65
2021/08/08 11:10:11;;;;;;;19.25;4.00;;;;;;;22.55;48.04;100780.13;5074416;28;20100;-65